sensor_id;sensor_type;location;lat;lon;timestamp;pressure;altitude;pressure_sealevel;temperature;humidity
48778;BME280;34578;0.000;0.000;2024-03-08T00:03:07;96283.56;;;18.65;47.79
48778;BME280;34578;0.000;0.000;2024-03-08T00:08:07;96277.66;;;18.65;48.41
48778;BME280;34578;0.000;0.000;2024-03-08T00:13:10;96270.91;;;18.64;48.54
48778;BME280;34578;0.000;0.000;2024-03-08T00:18:10;96266.69;;;18.63;48.47
48778;BME280;34578;0.000;0.000;2024-03-08T00:23:11;96265.81;;;18.64;48.47
48778;BME280;34578;0.000;0.000;2024-03-08T00:28:12;96262.47;;;18.63;48.69
48778;BME280;34578;0.000;0.000;2024-03-08T00:33:15;96257.44;;;18.59;48.06
48778;BME280;34578;0.000;0.000;2024-03-08T00:38:15;96256.53;;;18.63;48.11
48778;BME280;34578;0.000;0.000;2024-03-08T00:43:15;96253.19;;;18.59;48.28
48778;BME280;34578;0.000;0.000;2024-03-08T00:48:16;96250.66;;;18.61;48.60
48778;BME280;34578;0.000;0.000;2024-03-08T00:53:16;96243.06;;;18.61;48.13
48778;BME280;34578;0.000;0.000;2024-03-08T00:58:17;96233.75;;;18.60;48.57
48778;BME280;34578;0.000;0.000;2024-03-08T01:03:17;96216.88;;;18.56;48.45
48778;BME280;34578;0.000;0.000;2024-03-08T01:08:20;96215.16;;;18.59;48.28
48778;BME280;34578;0.000;0.000;2024-03-08T01:13:20;96224.44;;;18.60;48.32
48778;BME280;34578;0.000;0.000;2024-03-08T01:18:21;96208.41;;;18.60;48.17
48778;BME280;34578;0.000;0.000;2024-03-08T01:23:22;96207.59;;;18.58;48.33
48778;BME280;34578;0.000;0.000;2024-03-08T01:28:23;96194.91;;;18.58;47.85
48778;BME280;34578;0.000;0.000;2024-03-08T01:33:26;96194.91;;;18.58;48.30
48778;BME280;34578;0.000;0.000;2024-03-08T01:38:26;96187.28;;;18.61;47.96
48778;BME280;34578;0.000;0.000;2024-03-08T01:43:28;96178.00;;;18.60;47.77
48778;BME280;34578;0.000;0.000;2024-03-08T01:48:29;96177.13;;;18.59;48.14
48778;BME280;34578;0.000;0.000;2024-03-08T01:53:32;96172.09;;;18.58;48.16
48778;BME280;34578;0.000;0.000;2024-03-08T01:58:33;96168.72;;;18.56;48.29
48778;BME280;34578;0.000;0.000;2024-03-08T02:03:34;96162.81;;;18.57;48.50
48778;BME280;34578;0.000;0.000;2024-03-08T02:08:34;96156.03;;;18.59;47.43
48778;BME280;34578;0.000;0.000;2024-03-08T02:13:34;96149.28;;;18.58;47.19
48778;BME280;34578;0.000;0.000;2024-03-08T02:18:35;96149.28;;;18.56;47.41
48778;BME280;34578;0.000;0.000;2024-03-08T02:23:36;96150.16;;;18.55;47.99
48778;BME280;34578;0.000;0.000;2024-03-08T02:28:37;96140.00;;;18.57;47.73
48778;BME280;34578;0.000;0.000;2024-03-08T02:33:38;96145.91;;;18.57;48.02
48778;BME280;34578;0.000;0.000;2024-03-08T02:38:38;96135.75;;;18.56;48.01
48778;BME280;34578;0.000;0.000;2024-03-08T02:43:41;96122.28;;;18.54;48.00
48778;BME280;34578;0.000;0.000;2024-03-08T02:48:41;96120.56;;;18.56;47.58
48778;BME280;34578;0.000;0.000;2024-03-08T02:53:41;96105.34;;;18.56;47.23
48778;BME280;34578;0.000;0.000;2024-03-08T02:58:43;96101.97;;;18.55;47.44
48778;BME280;34578;0.000;0.000;2024-03-08T03:03:43;96102.81;;;18.57;47.74
48778;BME280;34578;0.000;0.000;2024-03-08T03:08:44;96087.59;;;18.57;47.68
48778;BME280;34578;0.000;0.000;2024-03-08T03:13:45;96085.06;;;18.56;47.55
48778;BME280;34578;0.000;0.000;2024-03-08T03:18:48;96084.22;;;18.57;47.25
48778;BME280;34578;0.000;0.000;2024-03-08T03:23:49;96085.06;;;18.56;47.33
48778;BME280;34578;0.000;0.000;2024-03-08T03:28:49;96080.84;;;18.56;47.05
48778;BME280;34578;0.000;0.000;2024-03-08T03:33:50;96089.31;;;18.55;47.20
48778;BME280;34578;0.000;0.000;2024-03-08T03:38:51;96080.84;;;18.56;47.51
48778;BME280;34578;0.000;0.000;2024-03-08T03:43:52;96082.53;;;18.56;47.29
48778;BME280;34578;0.000;0.000;2024-03-08T03:48:55;96078.31;;;18.55;47.15
48778;BME280;34578;0.000;0.000;2024-03-08T03:53:56;96072.38;;;18.56;47.43
48778;BME280;34578;0.000;0.000;2024-03-08T03:58:57;96072.38;;;18.56;47.52
48778;BME280;34578;0.000;0.000;2024-03-08T04:03:58;96073.25;;;18.55;46.89
48778;BME280;34578;0.000;0.000;2024-03-08T04:08:58;96066.50;;;18.57;46.76
48778;BME280;34578;0.000;0.000;2024-03-08T04:13:59;96068.16;;;18.58;46.47
48778;BME280;34578;0.000;0.000;2024-03-08T04:19:00;96063.97;;;18.55;47.39
48778;BME280;34578;0.000;0.000;2024-03-08T04:24:04;96068.22;;;18.52;47.77
48778;BME280;34578;0.000;0.000;2024-03-08T04:29:08;96063.97;;;18.54;46.51
48778;BME280;34578;0.000;0.000;2024-03-08T04:34:08;96057.22;;;18.54;47.00
48778;BME280;34578;0.000;0.000;2024-03-08T04:39:08;96053.81;;;18.55;47.35
48778;BME280;34578;0.000;0.000;2024-03-08T04:44:13;96046.97;;;18.60;47.47
48778;BME280;34578;0.000;0.000;2024-03-08T04:49:13;96046.13;;;18.63;46.82
48778;BME280;34578;0.000;0.000;2024-03-08T04:54:13;96044.44;;;18.62;46.73
48778;BME280;34578;0.000;0.000;2024-03-08T04:59:14;96035.16;;;18.61;45.82
48778;BME280;34578;0.000;0.000;2024-03-08T05:04:14;96030.00;;;18.68;46.01
48778;BME280;34578;0.000;0.000;2024-03-08T05:09:15;96027.50;;;18.67;45.40
48778;BME280;34578;0.000;0.000;2024-03-08T05:14:16;96023.28;;;18.64;45.35
48778;BME280;34578;0.000;0.000;2024-03-08T05:19:17;96024.97;;;18.67;45.08
48778;BME280;34578;0.000;0.000;2024-03-08T05:24:18;96024.91;;;18.68;44.78
48778;BME280;34578;0.000;0.000;2024-03-08T05:29:19;96018.97;;;18.71;44.84
48778;BME280;34578;0.000;0.000;2024-03-08T05:34:19;96020.69;;;18.69;44.46
48778;BME280;34578;0.000;0.000;2024-03-08T05:39:21;96017.31;;;18.68;44.17
48778;BME280;34578;0.000;0.000;2024-03-08T05:44:21;96018.97;;;18.71;44.70
48778;BME280;34578;0.000;0.000;2024-03-08T05:49:22;96026.50;;;18.78;44.11
48778;BME280;34578;0.000;0.000;2024-03-08T05:54:22;96030.69;;;18.82;44.53
48778;BME280;34578;0.000;0.000;2024-03-08T05:59:24;96027.38;;;18.74;43.79
48778;BME280;34578;0.000;0.000;2024-03-08T06:04:25;96026.56;;;18.74;44.63
48778;BME280;34578;0.000;0.000;2024-03-08T06:09:25;96035.88;;;18.72;44.38
48778;BME280;34578;0.000;0.000;2024-03-08T06:14:25;96029.13;;;18.71;43.43
48778;BME280;34578;0.000;0.000;2024-03-08T06:19:26;96034.19;;;18.74;43.17
48778;BME280;34578;0.000;0.000;2024-03-08T06:24:26;96034.09;;;18.80;43.49
48778;BME280;34578;0.000;0.000;2024-03-08T06:29:27;96033.38;;;18.69;43.64
48778;BME280;34578;0.000;0.000;2024-03-08T06:34:27;96021.19;;;18.24;40.95
48778;BME280;34578;0.000;0.000;2024-03-08T06:39:28;96019.31;;;18.44;43.26
48778;BME280;34578;0.000;0.000;2024-03-08T06:44:31;96012.56;;;18.43;41.88
48778;BME280;34578;0.000;0.000;2024-03-08T06:49:32;96010.91;;;18.39;40.36
48778;BME280;34578;0.000;0.000;2024-03-08T06:54:33;96001.66;;;18.33;41.67
48778;BME280;34578;0.000;0.000;2024-03-08T06:59:33;95995.72;;;18.36;41.28
48778;BME280;34578;0.000;0.000;2024-03-08T07:04:35;95993.16;;;18.40;41.24
48778;BME280;34578;0.000;0.000;2024-03-08T07:09:38;95982.22;;;18.37;40.02
48778;BME280;34578;0.000;0.000;2024-03-08T07:14:39;95979.72;;;18.34;40.25
48778;BME280;34578;0.000;0.000;2024-03-08T07:19:42;95968.78;;;18.30;40.96
48778;BME280;34578;0.000;0.000;2024-03-08T07:24:42;95964.47;;;18.35;40.79
48778;BME280;34578;0.000;0.000;2024-03-08T07:29:54;95958.63;;;18.32;40.14
48778;BME280;34578;0.000;0.000;2024-03-08T07:34:56;95956.88;;;18.35;40.12
48778;BME280;34578;0.000;0.000;2024-03-08T07:39:56;95954.34;;;18.37;40.54
48778;BME280;34578;0.000;0.000;2024-03-08T07:44:58;95960.25;;;18.36;40.64
48778;BME280;34578;0.000;0.000;2024-03-08T07:49:59;95953.50;;;18.35;40.85
48778;BME280;34578;0.000;0.000;2024-03-08T07:55:00;95951.00;;;18.33;40.13
48778;BME280;34578;0.000;0.000;2024-03-08T08:00:00;95939.13;;;18.35;40.88
48778;BME280;34578;0.000;0.000;2024-03-08T08:05:01;95941.66;;;18.37;40.64
48778;BME280;34578;0.000;0.000;2024-03-08T08:10:02;95941.72;;;18.34;41.03
48778;BME280;34578;0.000;0.000;2024-03-08T08:15:02;95941.72;;;18.32;40.79
48778;BME280;34578;0.000;0.000;2024-03-08T08:20:03;95929.03;;;18.34;40.49
48778;BME280;34578;0.000;0.000;2024-03-08T08:25:05;95926.50;;;18.34;40.25
48778;BME280;34578;0.000;0.000;2024-03-08T08:30:06;95923.13;;;18.33;40.44
48778;BME280;34578;0.000;0.000;2024-03-08T08:35:08;95918.03;;;18.35;40.76
48778;BME280;34578;0.000;0.000;2024-03-08T08:40:13;95918.03;;;18.35;40.23
48778;BME280;34578;0.000;0.000;2024-03-08T08:45:18;95922.25;;;18.34;40.97
48778;BME280;34578;0.000;0.000;2024-03-08T08:50:19;95917.19;;;18.36;40.80
48778;BME280;34578;0.000;0.000;2024-03-08T08:55:25;95915.47;;;18.38;40.81
48778;BME280;34578;0.000;0.000;2024-03-08T09:00:26;95917.13;;;18.39;40.88
48778;BME280;34578;0.000;0.000;2024-03-08T09:05:27;95923.91;;;18.40;41.22
48778;BME280;34578;0.000;0.000;2024-03-08T09:10:27;95914.59;;;18.39;41.18
48778;BME280;34578;0.000;0.000;2024-03-08T09:15:28;95911.22;;;18.40;41.14
48778;BME280;34578;0.000;0.000;2024-03-08T09:20:28;95902.78;;;18.41;41.24
48778;BME280;34578;0.000;0.000;2024-03-08T09:25:29;95895.16;;;18.41;41.24
48778;BME280;34578;0.000;0.000;2024-03-08T09:30:30;95888.44;;;18.38;41.27
48778;BME280;34578;0.000;0.000;2024-03-08T09:35:30;95882.50;;;18.38;41.48
48778;BME280;34578;0.000;0.000;2024-03-08T09:40:30;95868.16;;;18.38;41.41
48778;BME280;34578;0.000;0.000;2024-03-08T09:45:31;95863.91;;;18.39;41.56
48778;BME280;34578;0.000;0.000;2024-03-08T09:50:37;95858.84;;;18.39;41.41
48778;BME280;34578;0.000;0.000;2024-03-08T09:55:38;95852.09;;;18.38;41.26
48778;BME280;34578;0.000;0.000;2024-03-08T10:00:42;95856.22;;;18.46;41.88
48778;BME280;34578;0.000;0.000;2024-03-08T10:05:43;95845.22;;;18.49;41.83
48778;BME280;34578;0.000;0.000;2024-03-08T10:10:44;95840.16;;;18.49;41.88
48778;BME280;34578;0.000;0.000;2024-03-08T10:15:45;95839.25;;;18.51;41.97
48778;BME280;34578;0.000;0.000;2024-03-08T10:20:45;95833.34;;;18.51;42.31
48778;BME280;34578;0.000;0.000;2024-03-08T10:25:46;95842.63;;;18.53;42.43
48778;BME280;34578;0.000;0.000;2024-03-08T10:30:47;95830.81;;;18.52;42.48
48778;BME280;34578;0.000;0.000;2024-03-08T10:35:48;95829.97;;;18.52;42.72
48778;BME280;34578;0.000;0.000;2024-03-08T10:40:48;95831.56;;;18.56;42.55
48778;BME280;34578;0.000;0.000;2024-03-08T10:46:03;95827.28;;;18.61;42.91
48778;BME280;34578;0.000;0.000;2024-03-08T10:51:06;95816.28;;;18.62;43.00
48778;BME280;34578;0.000;0.000;2024-03-08T10:56:07;95817.94;;;18.63;42.95
48778;BME280;34578;0.000;0.000;2024-03-08T11:01:09;95803.53;;;18.66;43.57
48778;BME280;34578;0.000;0.000;2024-03-08T11:07:04;95806.09;;;18.65;43.71
48778;BME280;34578;0.000;0.000;2024-03-08T11:11:39;95805.22;;;18.67;44.19
48778;BME280;34578;0.000;0.000;2024-03-08T11:16:43;95793.38;;;18.68;44.01
48778;BME280;34578;0.000;0.000;2024-03-08T11:21:44;95780.72;;;18.68;44.17
48778;BME280;34578;0.000;0.000;2024-03-08T11:26:45;95770.47;;;18.74;44.88
48778;BME280;34578;0.000;0.000;2024-03-08T11:31:45;95765.41;;;18.72;45.21
48778;BME280;34578;0.000;0.000;2024-03-08T11:36:47;95764.47;;;18.78;44.98
48778;BME280;34578;0.000;0.000;2024-03-08T11:41:48;95764.38;;;18.84;44.91
48778;BME280;34578;0.000;0.000;2024-03-08T11:46:48;95764.31;;;18.88;44.66
48778;BME280;34578;0.000;0.000;2024-03-08T11:51:52;95757.59;;;18.86;45.38
48778;BME280;34578;0.000;0.000;2024-03-08T11:56:57;95735.59;;;18.86;45.08
48778;BME280;34578;0.000;0.000;2024-03-08T12:02:06;95731.34;;;18.87;45.52
48778;BME280;34578;0.000;0.000;2024-03-08T12:07:09;95733.03;;;18.88;45.42
48778;BME280;34578;0.000;0.000;2024-03-08T12:12:12;95724.53;;;18.90;45.74
48778;BME280;34578;0.000;0.000;2024-03-08T12:17:12;95717.88;;;18.85;46.09
48778;BME280;34578;0.000;0.000;2024-03-08T12:22:14;95704.44;;;18.80;46.27
48778;BME280;34578;0.000;0.000;2024-03-08T12:27:19;95684.13;;;18.80;45.85
48778;BME280;34578;0.000;0.000;2024-03-08T12:32:20;95680.56;;;18.90;46.40
48778;BME280;34578;0.000;0.000;2024-03-08T12:37:23;95679.69;;;18.92;46.67
48778;BME280;34578;0.000;0.000;2024-03-08T12:42:26;95666.13;;;18.93;46.75
48778;BME280;34578;0.000;0.000;2024-03-08T12:47:26;95649.25;;;18.92;47.41
48778;BME280;34578;0.000;0.000;2024-03-08T12:52:28;95646.69;;;18.94;48.00
48778;BME280;34578;0.000;0.000;2024-03-08T12:57:30;95637.25;;;19.00;47.10
48778;BME280;34578;0.000;0.000;2024-03-08T13:02:31;95622.09;;;18.99;47.74
48778;BME280;34578;0.000;0.000;2024-03-08T13:07:32;95604.50;;;18.90;47.14
48778;BME280;34578;0.000;0.000;2024-03-08T13:12:33;95601.03;;;18.94;48.04
48778;BME280;34578;0.000;0.000;2024-03-08T13:17:38;95596.81;;;18.94;47.93
48778;BME280;34578;0.000;0.000;2024-03-08T13:22:40;95585.84;;;18.94;47.69
48778;BME280;34578;0.000;0.000;2024-03-08T13:27:41;95574.03;;;18.93;48.08
48778;BME280;34578;0.000;0.000;2024-03-08T13:32:42;95574.03;;;18.93;47.19
48778;BME280;34578;0.000;0.000;2024-03-08T13:37:45;95560.47;;;18.94;47.30
48778;BME280;34578;0.000;0.000;2024-03-08T13:42:47;95558.78;;;18.94;47.68
48778;BME280;34578;0.000;0.000;2024-03-08T13:47:53;95541.03;;;18.93;48.13
48778;BME280;34578;0.000;0.000;2024-03-08T13:52:54;95524.19;;;18.90;48.60
48778;BME280;34578;0.000;0.000;2024-03-08T13:57:54;95529.34;;;18.87;48.11
48778;BME280;34578;0.000;0.000;2024-03-08T14:02:54;95529.28;;;18.89;48.22
48778;BME280;34578;0.000;0.000;2024-03-08T14:07:55;95517.53;;;18.85;48.32
48778;BME280;34578;0.000;0.000;2024-03-08T14:12:55;95531.09;;;18.84;48.58
48778;BME280;34578;0.000;0.000;2024-03-08T14:17:56;95525.16;;;18.85;48.11
48778;BME280;34578;0.000;0.000;2024-03-08T14:22:57;95511.53;;;18.89;48.30
48778;BME280;34578;0.000;0.000;2024-03-08T14:27:58;95506.59;;;18.83;49.16
48778;BME280;34578;0.000;0.000;2024-03-08T14:33:02;95515.78;;;18.88;49.08
48778;BME280;34578;0.000;0.000;2024-03-08T14:38:03;95493.06;;;18.84;49.24
48778;BME280;34578;0.000;0.000;2024-03-08T14:43:03;95500.63;;;18.85;49.15
48778;BME280;34578;0.000;0.000;2024-03-08T14:48:04;95501.66;;;18.77;49.33
48778;BME280;34578;0.000;0.000;2024-03-08T14:53:05;95501.00;;;18.67;50.29
48778;BME280;34578;0.000;0.000;2024-03-08T14:58:06;95510.34;;;18.64;49.63
48778;BME280;34578;0.000;0.000;2024-03-08T15:03:07;95503.69;;;18.60;50.23
48778;BME280;34578;0.000;0.000;2024-03-08T15:08:07;95489.38;;;18.57;49.87
48778;BME280;34578;0.000;0.000;2024-03-08T15:13:11;95484.38;;;18.54;50.08
48778;BME280;34578;0.000;0.000;2024-03-08T15:18:23;95496.19;;;18.54;49.92
48778;BME280;34578;0.000;0.000;2024-03-08T15:23:38;95490.34;;;18.52;49.82
48778;BME280;34578;0.000;0.000;2024-03-08T15:28:46;95481.84;;;18.54;49.67
48778;BME280;34578;0.000;0.000;2024-03-08T15:33:49;95480.19;;;18.52;49.73
48778;BME280;34578;0.000;0.000;2024-03-08T15:38:52;95468.44;;;18.48;49.85
48778;BME280;34578;0.000;0.000;2024-03-08T15:43:52;95464.19;;;18.50;49.87
48778;BME280;34578;0.000;0.000;2024-03-08T15:48:53;95460.78;;;18.52;49.27
48778;BME280;34578;0.000;0.000;2024-03-08T15:53:53;95452.13;;;18.61;47.69
48778;BME280;34578;0.000;0.000;2024-03-08T15:58:55;95449.59;;;18.61;47.86
48778;BME280;34578;0.000;0.000;2024-03-08T16:03:58;95436.06;;;18.62;47.66
48778;BME280;34578;0.000;0.000;2024-03-08T16:09:00;95428.38;;;18.65;48.36
48778;BME280;34578;0.000;0.000;2024-03-08T16:14:01;95401.94;;;18.76;48.82
48778;BME280;34578;0.000;0.000;2024-03-08T16:19:03;95405.97;;;18.85;49.37
48778;BME280;34578;0.000;0.000;2024-03-08T16:24:07;95401.63;;;18.90;49.45
48778;BME280;34578;0.000;0.000;2024-03-08T16:29:09;95388.81;;;18.96;49.24
48778;BME280;34578;0.000;0.000;2024-03-08T16:34:09;95378.63;;;18.97;49.93
48778;BME280;34578;0.000;0.000;2024-03-08T16:39:10;95373.53;;;18.99;49.85
48778;BME280;34578;0.000;0.000;2024-03-08T16:44:10;95389.53;;;19.01;49.98
48778;BME280;34578;0.000;0.000;2024-03-08T16:49:11;95392.09;;;19.01;50.17
48778;BME280;34578;0.000;0.000;2024-03-08T16:54:13;95387.06;;;18.98;50.21
48778;BME280;34578;0.000;0.000;2024-03-08T16:59:13;95384.81;;;18.86;49.72
48778;BME280;34578;0.000;0.000;2024-03-08T17:04:14;95386.56;;;18.84;49.81
48778;BME280;34578;0.000;0.000;2024-03-08T17:09:14;95376.47;;;18.81;50.38
48778;BME280;34578;0.000;0.000;2024-03-08T17:14:14;95384.06;;;18.82;50.09
48778;BME280;34578;0.000;0.000;2024-03-08T17:19:15;95393.28;;;18.85;49.53
48778;BME280;34578;0.000;0.000;2024-03-08T17:24:15;95383.19;;;18.83;49.54
48778;BME280;34578;0.000;0.000;2024-03-08T17:29:17;95385.72;;;18.83;49.46
48778;BME280;34578;0.000;0.000;2024-03-08T17:34:21;95391.66;;;18.82;48.79
48778;BME280;34578;0.000;0.000;2024-03-08T17:39:22;95384.81;;;18.86;48.42
48778;BME280;34578;0.000;0.000;2024-03-08T17:44:26;95384.06;;;18.82;48.77
48778;BME280;34578;0.000;0.000;2024-03-08T17:49:26;95380.59;;;18.86;49.10
48778;BME280;34578;0.000;0.000;2024-03-08T17:54:26;95372.91;;;18.89;49.38
48778;BME280;34578;0.000;0.000;2024-03-08T17:59:27;95386.47;;;18.87;49.52
48778;BME280;34578;0.000;0.000;2024-03-08T18:04:28;95396.59;;;18.88;49.54
48778;BME280;34578;0.000;0.000;2024-03-08T18:09:28;95393.22;;;18.88;49.58
48778;BME280;34578;0.000;0.000;2024-03-08T18:14:29;95398.28;;;18.88;49.48
48778;BME280;34578;0.000;0.000;2024-03-08T18:19:30;95401.69;;;18.87;49.89
48778;BME280;34578;0.000;0.000;2024-03-08T18:24:31;95423.59;;;18.91;49.10
48778;BME280;34578;0.000;0.000;2024-03-08T18:29:32;95429.47;;;18.93;49.79
48778;BME280;34578;0.000;0.000;2024-03-08T18:34:32;95445.41;;;18.98;49.74
48778;BME280;34578;0.000;0.000;2024-03-08T18:39:33;95452.16;;;18.99;49.81
48778;BME280;34578;0.000;0.000;2024-03-08T18:44:33;95450.47;;;18.98;49.94
48778;BME280;34578;0.000;0.000;2024-03-08T18:49:34;95445.38;;;18.99;49.12
48778;BME280;34578;0.000;0.000;2024-03-08T18:54:35;95446.03;;;19.07;50.09
48778;BME280;34578;0.000;0.000;2024-03-08T18:59:36;95453.50;;;19.13;50.66
48778;BME280;34578;0.000;0.000;2024-03-08T19:04:40;95442.47;;;19.16;51.17
48778;BME280;34578;0.000;0.000;2024-03-08T19:09:41;95442.50;;;19.14;50.96
48778;BME280;34578;0.000;0.000;2024-03-08T19:14:44;95428.09;;;19.15;51.34
48778;BME280;34578;0.000;0.000;2024-03-08T19:19:47;95428.09;;;19.15;51.40
48778;BME280;34578;0.000;0.000;2024-03-08T19:24:49;95428.97;;;19.14;51.54
48778;BME280;34578;0.000;0.000;2024-03-08T19:29:50;95428.06;;;19.16;51.24
48778;BME280;34578;0.000;0.000;2024-03-08T19:34:50;95424.66;;;19.19;51.22
48778;BME280;34578;0.000;0.000;2024-03-08T19:39:51;95424.66;;;19.19;51.08
48778;BME280;34578;0.000;0.000;2024-03-08T19:44:52;95423.69;;;19.24;50.64
48778;BME280;34578;0.000;0.000;2024-03-08T19:49:52;95430.38;;;19.27;50.53
48778;BME280;34578;0.000;0.000;2024-03-08T19:54:53;95423.50;;;18.94;47.41
48778;BME280;34578;0.000;0.000;2024-03-08T19:59:56;95421.97;;;18.87;47.26
48778;BME280;34578;0.000;0.000;2024-03-08T20:04:57;95431.72;;;19.05;48.81
48778;BME280;34578;0.000;0.000;2024-03-08T20:09:57;95431.50;;;19.14;49.20
48778;BME280;34578;0.000;0.000;2024-03-08T20:14:58;95424.00;;;19.09;49.35
48778;BME280;34578;0.000;0.000;2024-03-08T20:19:59;95428.19;;;19.10;49.93
48778;BME280;34578;0.000;0.000;2024-03-08T20:25:00;95438.44;;;19.06;49.73
48778;BME280;34578;0.000;0.000;2024-03-08T20:30:01;95433.47;;;19.03;49.40
48778;BME280;34578;0.000;0.000;2024-03-08T20:35:01;95446.94;;;19.05;49.15
48778;BME280;34578;0.000;0.000;2024-03-08T20:40:01;95435.03;;;19.07;48.98
48778;BME280;34578;0.000;0.000;2024-03-08T20:45:02;95421.50;;;19.08;48.83
48778;BME280;34578;0.000;0.000;2024-03-08T20:50:04;95413.81;;;19.11;48.75
48778;BME280;34578;0.000;0.000;2024-03-08T20:55:12;95428.16;;;19.12;48.92
48778;BME280;34578;0.000;0.000;2024-03-08T21:00:15;95437.56;;;19.08;48.84
48778;BME280;34578;0.000;0.000;2024-03-08T21:05:35;95448.59;;;19.06;49.00
48778;BME280;34578;0.000;0.000;2024-03-08T21:10:36;95451.97;;;19.06;48.70
48778;BME280;34578;0.000;0.000;2024-03-08T21:15:38;95459.50;;;19.09;48.20
48778;BME280;34578;0.000;0.000;2024-03-08T21:20:39;95457.22;;;18.99;48.88
48778;BME280;34578;0.000;0.000;2024-03-08T21:25:43;95459.69;;;19.02;48.28
48778;BME280;34578;0.000;0.000;2024-03-08T21:30:43;95454.63;;;19.00;48.37
48778;BME280;34578;0.000;0.000;2024-03-08T21:35:45;95450.34;;;19.04;47.93
48778;BME280;34578;0.000;0.000;2024-03-08T21:40:46;95458.81;;;19.03;48.12
48778;BME280;34578;0.000;0.000;2024-03-08T21:45:48;95462.22;;;19.02;48.05
48778;BME280;34578;0.000;0.000;2024-03-08T21:50:49;95453.75;;;19.03;47.78
48778;BME280;34578;0.000;0.000;2024-03-08T21:55:52;95468.97;;;19.03;47.59
48778;BME280;34578;0.000;0.000;2024-03-08T22:00:52;95466.44;;;19.03;47.71
48778;BME280;34578;0.000;0.000;2024-03-08T22:05:53;95471.53;;;19.01;48.42
48778;BME280;34578;0.000;0.000;2024-03-08T22:10:53;95482.63;;;18.97;48.36
48778;BME280;34578;0.000;0.000;2024-03-08T22:15:55;95489.47;;;18.94;47.84
48778;BME280;34578;0.000;0.000;2024-03-08T22:20:56;95486.03;;;18.95;48.41
48778;BME280;34578;0.000;0.000;2024-03-08T22:25:56;95492.06;;;18.91;47.80
48778;BME280;34578;0.000;0.000;2024-03-08T22:30:57;95487.88;;;18.88;48.37
48778;BME280;34578;0.000;0.000;2024-03-08T22:35:58;95492.91;;;18.90;47.48
48778;BME280;34578;0.000;0.000;2024-03-08T22:40:59;95498.91;;;18.87;47.80
48778;BME280;34578;0.000;0.000;2024-03-08T22:46:01;95504.78;;;18.88;47.88
48778;BME280;34578;0.000;0.000;2024-03-08T22:51:04;95503.25;;;18.81;46.92
48778;BME280;34578;0.000;0.000;2024-03-08T22:56:07;95516.69;;;18.86;47.31
48778;BME280;34578;0.000;0.000;2024-03-08T23:01:07;95510.72;;;18.87;47.77
48778;BME280;34578;0.000;0.000;2024-03-08T23:06:09;95520.06;;;18.86;47.63
48778;BME280;34578;0.000;0.000;2024-03-08T23:11:12;95514.22;;;18.83;47.83
48778;BME280;34578;0.000;0.000;2024-03-08T23:16:12;95527.75;;;18.82;47.46
48778;BME280;34578;0.000;0.000;2024-03-08T23:21:13;95535.38;;;18.82;47.79
48778;BME280;34578;0.000;0.000;2024-03-08T23:26:14;95534.50;;;18.83;47.79
48778;BME280;34578;0.000;0.000;2024-03-08T23:31:15;95536.16;;;18.84;47.09
48778;BME280;34578;0.000;0.000;2024-03-08T23:36:15;95524.34;;;18.83;47.39
48778;BME280;34578;0.000;0.000;2024-03-08T23:41:16;95535.38;;;18.82;47.48
48778;BME280;34578;0.000;0.000;2024-03-08T23:46:18;95543.81;;;18.81;47.31
48778;BME280;34578;0.000;0.000;2024-03-08T23:51:18;95532.88;;;18.79;47.68
48778;BME280;34578;0.000;0.000;2024-03-08T23:56:18;95532.88;;;18.79;47.25
